Condor Express — 9V5373 — position and weather

sailwx.info

Track history (hours):
 
Tides and Currents Weather Stations Pressure Air Temp Water Temp Dewpoint Dewpoint Depression Visibility Wind Speed Wind Dir Waves Ship Positions

Condor Express

Operator: Condor Marine Services

Last reported at 2017-Sep-22 01:58 UTC. Time now 2017-Sep-22 06:13 UTC.
Position N 53°39' W 000°12'.

Length 235 m; draft 14 m.

Type: Cargo ship. MMSI: 563014500.

Date/timePositionNaut miles runAvg speedWind from/ knotsBaromVisibWave heightAir tempDewpointWater temp
2017-Sep-22 01:58N 53°39' W 000°12'0 0.0
2017-Sep-22 01:28N 53°39' W 000°12'0 0.0
2017-Sep-22 00:58N 53°39' W 000°12'0 0.0
2017-Sep-22 00:25N 53°39' W 000°12'0 0.0
2017-Sep-21 23:58N 53°39' W 000°12'0 0.0
2017-Sep-21 23:28N 53°39' W 000°12'0 0.0
2017-Sep-21 22:58N 53°39' W 000°12'0 0.0
2017-Sep-21 22:28N 53°39' W 000°12'0 0.0
2017-Sep-21 21:58N 53°39' W 000°12'0 0.0
2017-Sep-21 21:28N 53°39' W 000°12'0 0.0
2017-Sep-21 20:58N 53°39' W 000°12'0 0.0
2017-Sep-21 20:28N 53°39' W 000°12'0 0.0
2017-Sep-21 19:55N 53°39' W 000°12'0 0.0
2017-Sep-21 19:28N 53°39' W 000°12'0 0.0
2017-Sep-21 18:55N 53°39' W 000°12'0 0.0
2017-Sep-21 18:28N 53°39' W 000°12'0 0.0
2017-Sep-21 17:58N 53°39' W 000°12'0 0.0
2017-Sep-21 17:25N 53°39' W 000°12'0 0.0
2017-Sep-21 16:58N 53°39' W 000°12'0 0.0
2017-Sep-21 16:28N 53°39' W 000°12'0 0.0
2017-Sep-21 15:58N 53°39' W 000°12'0 0.0
2017-Sep-21 15:25N 53°39' W 000°12'0 0.0
2017-Sep-21 14:58N 53°39' W 000°12'0 0.0
2017-Sep-21 14:28N 53°39' W 000°12'0 0.0
2017-Sep-21 13:52N 53°39' W 000°12'0 0.0
2017-Sep-21 13:28N 53°39' W 000°12'0 0.0
2017-Sep-21 12:58N 53°39' W 000°12'0 0.0
2017-Sep-21 12:28N 53°39' W 000°12'0 0.0
2017-Sep-21 11:58N 53°39' W 000°12'0 0.0
2017-Sep-21 11:28N 53°39' W 000°12'0 0.0
2017-Sep-21 10:58N 53°39' W 000°12'0 0.0
2017-Sep-21 10:28N 53°39' W 000°12'0 0.0
2017-Sep-21 09:58N 53°39' W 000°12'0 0.0
2017-Sep-21 09:28N 53°39' W 000°12'0 0.0
2017-Sep-21 08:58N 53°39' W 000°12'0 0.0
2017-Sep-21 08:28N 53°39' W 000°12'0 0.0
2017-Sep-21 07:58N 53°39' W 000°12'0 0.0
2017-Sep-21 07:22N 53°39' W 000°12'0 0.0
2017-Sep-21 06:49N 53°39' W 000°12'0 0.0
2017-Sep-21 06:28N 53°39' W 000°12'0 0.5
2017-Sep-21 06:00N 53°39' W 000°12'2 3.6
2017-Sep-21 05:30N 53°38' W 000°09'3 5.9
2017-Sep-21 05:00N 53°37' W 000°04'5 9.4
2017-Sep-21 04:31N 53°36' E 000°03'510.2
2017-Sep-21 04:00N 53°33' E 000°10'7 9.9
2017-Sep-21 03:16N 53°37' E 000°20'3 9.9
2017-Sep-21 02:57N 53°40' E 000°22'1 1.2
2017-Sep-21 02:30N 53°41' E 000°22'0 0.5
2017-Sep-21 02:00N 53°40' E 000°22'2 3.7
2017-Sep-21 01:30N 53°42' E 000°24'3 5.3
2017-Sep-21 00:59N 53°44' E 000°27'52 3.7
2017-Sep-20 10:56N 53°26' E 001°50'814.0
2017-Sep-20 10:23N 53°21' E 001°59'513.4
2017-Sep-20 10:00N 53°17' E 002°05'613.0
2017-Sep-20 09:31N 53°12' E 002°12'812.2
2017-Sep-20 08:53N 53°06' E 002°20'412.0
2017-Sep-20 08:31N 53°04' E 002°26'1012.0
2017-Sep-20 07:39N 52°58' E 002°40'211.6
2017-Sep-20 07:30N 52°56' E 002°41'7913.8
2017-Sep-20 01:47N 51°38' E 002°27'715.5
2017-Sep-20 01:20N 51°33' E 002°19'515.7
2017-Sep-20 01:00N 51°29' E 002°14'714.7
2017-Sep-20 00:30N 51°22' E 002°08'714.9
2017-Sep-20 00:00N 51°15' E 002°06'815.5
2017-Sep-19 23:30N 51°11' E 001°55'816.3
2017-Sep-19 23:00N 51°07' E 001°44'816.4
2017-Sep-19 22:30N 51°01' E 001°35'815.5
2017-Sep-19 22:00N 50°54' E 001°29'3713.9
2017-Sep-19 19:19N 50°27' E 000°47'1914.6
2017-Sep-19 18:00N 50°22' E 000°18'713.9
2017-Sep-19 17:30N 50°20' E 000°08'713.5
2017-Sep-19 17:00N 50°18' W 000°02'613.0
2017-Sep-19 16:30N 50°16' W 000°12'3011.8
2017-Sep-19 13:57N 50°09' W 000°57'510.5
2017-Sep-19 13:30N 50°08' W 001°04'510.3
2017-Sep-19 13:00N 50°06' W 001°12'610.4
2017-Sep-19 12:27N 50°05' W 001°21'510.8
2017-Sep-19 12:01N 50°03' W 001°28'611.3
2017-Sep-19 11:31N 50°02' W 001°37'612.0
2017-Sep-19 11:00N 50°01' W 001°46'612.9
2017-Sep-19 10:30N 49°59' W 001°56'713.6
2017-Sep-19 10:00N 49°58' W 002°06'2214.7
2017-Sep-19 08:29N 49°53' W 002°40'715.0
2017-Sep-19 08:01N 49°51' W 002°50'914.9
2017-Sep-19 07:24N 49°50' W 003°05'615.0
2017-Sep-19 07:00N 49°49' W 003°14'715.0
2017-Sep-19 06:30N 49°49' W 003°25'815.2
2017-Sep-19 06:01N 49°48' W 003°37'815.2
2017-Sep-19 05:31N 49°47' W 003°48'815.1
2017-Sep-19 05:01N 49°46' W 004°00'815.4
2017-Sep-19 04:30N 49°45' W 004°12'815.2
2017-Sep-19 03:58N 49°45' W 004°25'815.1
2017-Sep-19 03:28N 49°44' W 004°36'714.9
2017-Sep-19 03:00N 49°44' W 004°47'1314.5
2017-Sep-19 02:08N 49°43' W 005°07'314.3
2017-Sep-19 01:54N 49°42' W 005°12'1014.0
2017-Sep-19 01:13N 49°41' W 005°26'2313.6
2017-Sep-18 23:33N 49°39' W 006°01'  
Track history (hours):
 
Tides and Currents Weather Stations Pressure Air Temp Water Temp Dewpoint Dewpoint Depression Visibility Wind Speed Wind Dir Waves Ship Positions

Condor Express

Operator: Condor Marine Services

Last reported at 2017-Sep-22 01:58 UTC. Time now 2017-Sep-22 06:13 UTC.
Position N 53°39' W 000°12'.

Length 235 m; draft 14 m.

Type: Cargo ship. MMSI: 563014500.

Date/timePositionNaut miles runAvg speedWind from/ knotsBaromVisibWave heightAir tempDewpointWater temp
2017-Sep-22 01:58N 53°39' W 000°12'0 0.0
2017-Sep-22 01:28N 53°39' W 000°12'0 0.0
2017-Sep-22 00:58N 53°39' W 000°12'0 0.0
2017-Sep-22 00:25N 53°39' W 000°12'0 0.0
2017-Sep-21 23:58N 53°39' W 000°12'0 0.0
2017-Sep-21 23:28N 53°39' W 000°12'0 0.0
2017-Sep-21 22:58N 53°39' W 000°12'0 0.0
2017-Sep-21 22:28N 53°39' W 000°12'0 0.0
2017-Sep-21 21:58N 53°39' W 000°12'0 0.0
2017-Sep-21 21:28N 53°39' W 000°12'0 0.0
2017-Sep-21 20:58N 53°39' W 000°12'0 0.0
2017-Sep-21 20:28N 53°39' W 000°12'0 0.0
2017-Sep-21 19:55N 53°39' W 000°12'0 0.0
2017-Sep-21 19:28N 53°39' W 000°12'0 0.0
2017-Sep-21 18:55N 53°39' W 000°12'0 0.0
2017-Sep-21 18:28N 53°39' W 000°12'0 0.0
2017-Sep-21 17:58N 53°39' W 000°12'0 0.0
2017-Sep-21 17:25N 53°39' W 000°12'0 0.0
2017-Sep-21 16:58N 53°39' W 000°12'0 0.0
2017-Sep-21 16:28N 53°39' W 000°12'0 0.0
2017-Sep-21 15:58N 53°39' W 000°12'0 0.0
2017-Sep-21 15:25N 53°39' W 000°12'0 0.0
2017-Sep-21 14:58N 53°39' W 000°12'0 0.0
2017-Sep-21 14:28N 53°39' W 000°12'0 0.0
2017-Sep-21 13:52N 53°39' W 000°12'0 0.0
2017-Sep-21 13:28N 53°39' W 000°12'0 0.0
2017-Sep-21 12:58N 53°39' W 000°12'0 0.0
2017-Sep-21 12:28N 53°39' W 000°12'0 0.0
2017-Sep-21 11:58N 53°39' W 000°12'0 0.0
2017-Sep-21 11:28N 53°39' W 000°12'0 0.0
2017-Sep-21 10:58N 53°39' W 000°12'0 0.0
2017-Sep-21 10:28N 53°39' W 000°12'0 0.0
2017-Sep-21 09:58N 53°39' W 000°12'0 0.0
2017-Sep-21 09:28N 53°39' W 000°12'0 0.0
2017-Sep-21 08:58N 53°39' W 000°12'0 0.0
2017-Sep-21 08:28N 53°39' W 000°12'0 0.0
2017-Sep-21 07:58N 53°39' W 000°12'0 0.0
2017-Sep-21 07:22N 53°39' W 000°12'0 0.0
2017-Sep-21 06:49N 53°39' W 000°12'0 0.0
2017-Sep-21 06:28N 53°39' W 000°12'0 0.5
2017-Sep-21 06:00N 53°39' W 000°12'2 3.6
2017-Sep-21 05:30N 53°38' W 000°09'3 5.9
2017-Sep-21 05:00N 53°37' W 000°04'5 9.4
2017-Sep-21 04:31N 53°36' E 000°03'510.2
2017-Sep-21 04:00N 53°33' E 000°10'7 9.9
2017-Sep-21 03:16N 53°37' E 000°20'3 9.9
2017-Sep-21 02:57N 53°40' E 000°22'1 1.2
2017-Sep-21 02:30N 53°41' E 000°22'0 0.5
2017-Sep-21 02:00N 53°40' E 000°22'2 3.7
2017-Sep-21 01:30N 53°42' E 000°24'3 5.3
2017-Sep-21 00:59N 53°44' E 000°27'52 3.7
2017-Sep-20 10:56N 53°26' E 001°50'814.0
2017-Sep-20 10:23N 53°21' E 001°59'513.4
2017-Sep-20 10:00N 53°17' E 002°05'613.0
2017-Sep-20 09:31N 53°12' E 002°12'812.2
2017-Sep-20 08:53N 53°06' E 002°20'412.0
2017-Sep-20 08:31N 53°04' E 002°26'1012.0
2017-Sep-20 07:39N 52°58' E 002°40'211.6
2017-Sep-20 07:30N 52°56' E 002°41'7913.8
2017-Sep-20 01:47N 51°38' E 002°27'715.5
2017-Sep-20 01:20N 51°33' E 002°19'515.7
2017-Sep-20 01:00N 51°29' E 002°14'714.7
2017-Sep-20 00:30N 51°22' E 002°08'714.9
2017-Sep-20 00:00N 51°15' E 002°06'815.5
2017-Sep-19 23:30N 51°11' E 001°55'816.3
2017-Sep-19 23:00N 51°07' E 001°44'816.4
2017-Sep-19 22:30N 51°01' E 001°35'815.5
2017-Sep-19 22:00N 50°54' E 001°29'3713.9
2017-Sep-19 19:19N 50°27' E 000°47'1914.6
2017-Sep-19 18:00N 50°22' E 000°18'713.9
2017-Sep-19 17:30N 50°20' E 000°08'713.5
2017-Sep-19 17:00N 50°18' W 000°02'613.0
2017-Sep-19 16:30N 50°16' W 000°12'3011.8
2017-Sep-19 13:57N 50°09' W 000°57'510.5
2017-Sep-19 13:30N 50°08' W 001°04'510.3
2017-Sep-19 13:00N 50°06' W 001°12'610.4
2017-Sep-19 12:27N 50°05' W 001°21'510.8
2017-Sep-19 12:01N 50°03' W 001°28'611.3
2017-Sep-19 11:31N 50°02' W 001°37'612.0
2017-Sep-19 11:00N 50°01' W 001°46'612.9
2017-Sep-19 10:30N 49°59' W 001°56'713.6
2017-Sep-19 10:00N 49°58' W 002°06'2214.7
2017-Sep-19 08:29N 49°53' W 002°40'715.0
2017-Sep-19 08:01N 49°51' W 002°50'914.9
2017-Sep-19 07:24N 49°50' W 003°05'615.0
2017-Sep-19 07:00N 49°49' W 003°14'715.0
2017-Sep-19 06:30N 49°49' W 003°25'815.2
2017-Sep-19 06:01N 49°48' W 003°37'815.2
2017-Sep-19 05:31N 49°47' W 003°48'815.1
2017-Sep-19 05:01N 49°46' W 004°00'815.4
2017-Sep-19 04:30N 49°45' W 004°12'815.2
2017-Sep-19 03:58N 49°45' W 004°25'815.1
2017-Sep-19 03:28N 49°44' W 004°36'714.9
2017-Sep-19 03:00N 49°44' W 004°47'1314.5
2017-Sep-19 02:08N 49°43' W 005°07'314.3
2017-Sep-19 01:54N 49°42' W 005°12'1014.0
2017-Sep-19 01:13N 49°41' W 005°26'2313.6
2017-Sep-18 23:33N 49°39' W 006°01'  

Dump ship's entire track history